createdAt,value
2018-11-02T00:00:00.853Z,11.37
2018-11-02T00:02:28.386Z,16.37
2018-11-02T00:04:56.436Z,8.30
2018-11-02T00:07:24.449Z,8.47
2018-11-02T00:09:52.030Z,11.80
2018-11-02T00:12:19.627Z,10.13
2018-11-02T00:14:47.883Z,5.60
2018-11-02T00:17:16.214Z,7.37
2018-11-02T00:19:43.798Z,6.70
2018-11-02T00:22:11.283Z,7.40
2018-11-02T00:24:39.681Z,7.47
2018-11-02T00:27:07.302Z,17.80
2018-11-02T00:29:35.011Z,12.23
2018-11-02T00:32:02.648Z,9.93
2018-11-02T00:34:31.827Z,8.00
2018-11-02T00:37:00.256Z,7.60
2018-11-02T00:39:27.838Z,6.23
2018-11-02T00:41:56.720Z,9.40
2018-11-02T00:44:24.590Z,9.60
2018-11-02T00:46:52.119Z,7.50
2018-11-02T00:49:20.208Z,7.77
2018-11-02T00:51:48.153Z,9.20
2018-11-02T00:54:16.632Z,8.70
2018-11-02T00:56:44.169Z,8.57
2018-11-02T00:59:11.773Z,8.10
2018-11-02T01:01:39.388Z,10.47
2018-11-02T01:04:07.225Z,7.03
2018-11-02T01:06:34.897Z,9.27
2018-11-02T01:09:02.953Z,11.97
2018-11-02T01:11:30.663Z,7.20
2018-11-02T01:13:58.190Z,10.60
2018-11-02T01:16:27.130Z,10.40
2018-11-02T01:18:54.628Z,7.87
2018-11-02T01:21:22.200Z,9.73
2018-11-02T01:23:49.781Z,12.30
2018-11-02T01:26:17.993Z,7.50
2018-11-02T01:28:46.066Z,6.23
2018-11-02T01:31:14.353Z,5.33
2018-11-02T01:33:41.940Z,4.07
2018-11-02T01:36:11.364Z,11.10
2018-11-02T01:38:38.898Z,4.53
2018-11-02T01:41:08.390Z,5.00
2018-11-02T01:43:35.905Z,7.97
2018-11-02T01:46:03.468Z,6.13
2018-11-02T01:48:31.776Z,5.90
2018-11-02T01:51:00.065Z,4.50
2018-11-02T01:53:28.223Z,5.57
2018-11-02T01:55:56.662Z,7.17
2018-11-02T01:58:24.190Z,7.27
2018-11-02T02:00:51.727Z,5.20
2018-11-02T02:03:19.246Z,6.73
2018-11-02T02:05:46.854Z,5.23
2018-11-02T02:08:15.492Z,7.17
2018-11-02T02:10:42.995Z,5.27
2018-11-02T02:13:11.740Z,6.90
2018-11-02T02:15:39.724Z,12.53
2018-11-02T02:18:07.830Z,4.87
2018-11-02T02:20:35.449Z,7.30
2018-11-02T02:23:02.987Z,8.87
2018-11-02T02:25:31.302Z,7.47
2018-11-02T02:27:58.808Z,5.83
2018-11-02T02:30:26.337Z,5.70
2018-11-02T02:32:54.577Z,8.23
2018-11-02T02:35:22.934Z,5.70
2018-11-02T02:37:50.467Z,5.67
2018-11-02T02:40:19.163Z,4.70
2018-11-02T02:42:47.786Z,4.97
2018-11-02T02:45:16.229Z,7.13
2018-11-02T02:47:44.788Z,11.10
2018-11-02T02:50:13.937Z,7.17
2018-11-02T02:52:42.880Z,9.53
2018-11-02T02:55:10.896Z,7.73
2018-11-02T02:57:38.578Z,5.83
2018-11-02T03:00:08.618Z,7.20
2018-11-02T03:02:36.187Z,7.57
2018-11-02T03:05:03.818Z,10.33
2018-11-02T03:07:31.989Z,9.93
2018-11-02T03:10:00.105Z,9.00
2018-11-02T03:12:27.731Z,9.33
2018-11-02T03:14:55.897Z,7.03
2018-11-02T03:17:25.104Z,5.33
2018-11-02T03:19:52.709Z,10.83
2018-11-02T03:22:20.473Z,9.50
2018-11-02T03:24:49.752Z,5.33
2018-11-02T03:27:17.455Z,5.07
2018-11-02T03:29:45.651Z,5.20
2018-11-02T03:32:13.756Z,8.13
2018-11-02T03:34:41.267Z,12.07
2018-11-02T03:37:08.913Z,10.40
2018-11-02T03:39:36.509Z,30.10
2018-11-02T03:42:05.779Z,32.03
2018-11-02T03:44:34.448Z,20.03
2018-11-02T03:47:02.584Z,13.90
2018-11-02T03:49:30.672Z,14.37
2018-11-02T03:51:58.740Z,7.03
2018-11-02T03:54:27.592Z,9.10
2018-11-02T03:56:55.229Z,6.77
2018-11-02T03:59:22.685Z,12.53
2018-11-02T04:01:50.432Z,8.80
2018-11-02T04:04:17.968Z,11.20
2018-11-02T04:06:46.559Z,6.43
2018-11-02T04:09:15.109Z,15.63
2018-11-02T04:11:42.936Z,7.13
2018-11-02T04:14:10.449Z,3.90
2018-11-02T04:16:38.712Z,4.60
2018-11-02T04:19:06.277Z,10.10
2018-11-02T04:21:37.668Z,11.70
2018-11-02T04:24:05.916Z,8.30
2018-11-02T04:26:33.425Z,6.90
2018-11-02T04:29:01.567Z,11.53
2018-11-02T04:31:29.072Z,7.30
2018-11-02T04:33:56.599Z,9.87
2018-11-02T04:36:24.260Z,7.03
2018-11-02T04:38:51.758Z,6.17
2018-11-02T04:41:19.741Z,10.00
2018-11-02T04:43:47.872Z,6.73
2018-11-02T04:46:15.377Z,4.57
2018-11-02T04:48:43.353Z,6.00
2018-11-02T04:51:11.042Z,9.50
2018-11-02T04:53:39.360Z,7.43
2018-11-02T04:56:06.872Z,8.17
2018-11-02T04:58:34.390Z,4.30
2018-11-02T05:01:01.973Z,12.73
2018-11-02T05:03:29.482Z,17.33
2018-11-02T05:05:57.083Z,11.80
2018-11-02T05:08:25.153Z,6.33
2018-11-02T05:10:52.849Z,10.20
2018-11-02T05:13:20.384Z,9.93
2018-11-02T05:15:48.507Z,10.90
2018-11-02T05:18:16.417Z,6.70
2018-11-02T05:20:43.977Z,10.13
2018-11-02T05:23:11.512Z,5.80
2018-11-02T05:25:39.653Z,8.93
2018-11-02T05:28:07.293Z,8.20
2018-11-02T05:30:34.902Z,9.60
2018-11-02T05:33:03.006Z,6.60
2018-11-02T05:35:30.532Z,5.30
2018-11-02T05:37:59.012Z,8.60
2018-11-02T05:40:26.565Z,13.03
2018-11-02T05:42:54.932Z,9.70
2018-11-02T05:45:22.486Z,5.23
2018-11-02T05:47:50.770Z,8.83
2018-11-02T05:50:18.301Z,5.07
2018-11-02T05:52:47.364Z,8.23
2018-11-02T05:55:15.840Z,12.13
2018-11-02T05:57:43.339Z,13.53
2018-11-02T06:00:11.492Z,11.70
2018-11-02T06:02:39.111Z,16.23
2018-11-02T06:05:06.968Z,7.03
2018-11-02T06:07:36.173Z,7.13
2018-11-02T06:10:03.740Z,7.90
2018-11-02T06:12:31.299Z,8.50
2018-11-02T06:14:59.571Z,5.80
2018-11-02T06:17:27.908Z,7.43
2018-11-02T06:19:55.417Z,10.10
2018-11-02T06:22:22.956Z,6.23
2018-11-02T06:24:51.520Z,7.40
2018-11-02T06:27:19.014Z,11.03
2018-11-02T06:29:46.833Z,15.23
2018-11-02T06:32:14.364Z,16.00
2018-11-02T06:34:41.892Z,10.90
2018-11-02T06:37:10.267Z,8.17
2018-11-02T06:39:38.549Z,12.77
2018-11-02T06:42:06.776Z,14.50
2018-11-02T06:44:34.344Z,5.83
2018-11-02T06:47:02.948Z,6.57
2018-11-02T06:49:31.787Z,6.87
2018-11-02T06:52:00.876Z,13.40
2018-11-02T06:54:29.155Z,12.20
2018-11-02T06:56:56.694Z,15.50
2018-11-02T06:59:24.549Z,19.10
2018-11-02T07:01:51.968Z,16.47
2018-11-02T07:04:19.519Z,19.43
2018-11-02T07:06:47.592Z,13.63
2018-11-02T07:09:15.112Z,15.33
2018-11-02T07:11:44.036Z,15.43
2018-11-02T07:14:11.557Z,14.43
2018-11-02T07:16:40.106Z,12.90
2018-11-02T07:19:07.732Z,17.70
2018-11-02T07:21:36.459Z,10.33
2018-11-02T07:24:04.740Z,10.10
2018-11-02T07:26:32.256Z,12.70
2018-11-02T07:29:00.282Z,10.63
2018-11-02T07:31:27.988Z,9.00
2018-11-02T07:33:55.916Z,14.97
2018-11-02T07:36:24.310Z,14.17
2018-11-02T07:38:52.596Z,10.23
2018-11-02T07:41:20.652Z,18.07
2018-11-02T07:50:35.620Z,9.40
2018-11-02T07:53:04.486Z,17.17
2018-11-02T07:55:34.034Z,15.07
2018-11-02T07:58:01.652Z,16.43
2018-11-02T08:00:29.254Z,9.73
2018-11-02T08:02:56.843Z,12.37
2018-11-02T08:05:24.941Z,13.73
2018-11-02T08:07:53.994Z,10.80
2018-11-02T08:10:22.366Z,15.93
2018-11-02T08:12:49.898Z,10.40
2018-11-02T08:15:17.420Z,11.63
2018-11-02T08:17:46.397Z,14.17
2018-11-02T08:20:13.898Z,13.33
2018-11-02T08:22:41.884Z,14.60
2018-11-02T08:25:10.912Z,13.93
2018-11-02T08:27:38.753Z,10.03
2018-11-02T08:30:07.644Z,14.60
2018-11-02T08:32:36.081Z,13.70
2018-11-02T08:35:06.105Z,13.80
2018-11-02T08:37:34.325Z,16.83
2018-11-02T08:40:01.865Z,12.97
2018-11-02T08:42:30.102Z,16.87
2018-11-02T08:44:58.283Z,15.07
2018-11-02T08:47:26.040Z,9.60
2018-11-02T08:49:53.972Z,12.83
2018-11-02T08:52:22.254Z,15.43
2018-11-02T08:54:50.306Z,15.17
2018-11-02T08:57:18.585Z,10.20
2018-11-02T08:59:46.189Z,16.17
2018-11-02T09:02:13.807Z,13.10
2018-11-02T09:04:41.399Z,11.03
2018-11-02T09:07:09.513Z,12.77
2018-11-02T09:09:37.070Z,11.17
2018-11-02T09:12:04.669Z,11.10
2018-11-02T09:14:32.305Z,23.30
2018-11-02T09:17:00.922Z,12.33
2018-11-02T09:19:28.470Z,8.70
2018-11-02T09:21:58.146Z,13.20
2018-11-02T09:24:26.510Z,17.73
2018-11-02T09:26:54.101Z,10.33
2018-11-02T09:29:22.798Z,16.33
2018-11-02T09:31:51.136Z,13.70
2018-11-02T09:34:18.693Z,11.63
2018-11-02T09:36:46.347Z,14.57
2018-11-02T09:39:14.090Z,12.70
2018-11-02T09:41:42.467Z,10.07
2018-11-02T09:44:10.700Z,12.87
2018-11-02T09:46:38.941Z,17.83
2018-11-02T09:49:06.952Z,14.80
2018-11-02T09:51:34.669Z,15.10
2018-11-02T09:54:02.992Z,13.33
2018-11-02T09:56:30.966Z,11.90
2018-11-02T09:58:58.508Z,12.40
2018-11-02T10:01:26.169Z,15.10
2018-11-02T10:03:54.876Z,12.40
2018-11-02T10:06:22.538Z,15.10
2018-11-02T10:08:51.060Z,11.60
2018-11-02T10:11:18.621Z,13.13
2018-11-02T10:13:46.705Z,15.07
2018-11-02T10:16:15.278Z,12.73
2018-11-02T10:18:42.861Z,14.77
2018-11-02T10:21:10.476Z,15.60
2018-11-02T10:23:38.137Z,14.73
2018-11-02T10:26:06.340Z,17.13
2018-11-02T10:28:34.171Z,16.13
2018-11-02T10:31:02.300Z,16.63
2018-11-02T10:33:29.916Z,18.10
2018-11-02T10:35:57.625Z,14.70
2018-11-02T10:38:25.283Z,16.53
2018-11-02T10:40:55.059Z,16.30
2018-11-02T10:43:23.964Z,15.73
2018-11-02T10:45:55.151Z,15.10
2018-11-02T10:48:24.710Z,18.53
2018-11-02T10:50:52.812Z,16.00
2018-11-02T10:53:21.130Z,20.70
2018-11-02T10:55:49.060Z,15.77
2018-11-02T10:58:16.621Z,14.57
2018-11-02T11:00:50.042Z,15.43
2018-11-02T11:03:19.371Z,16.20
2018-11-02T11:05:47.681Z,14.90
2018-11-02T11:08:15.848Z,13.00
2018-11-02T11:10:43.849Z,14.53
2018-11-02T11:13:11.728Z,13.87
2018-11-02T11:15:39.002Z,16.60
2018-11-02T11:18:07.064Z,16.00
2018-11-02T11:20:34.704Z,16.43
2018-11-02T11:23:02.242Z,18.50
2018-11-02T11:25:30.560Z,19.33
2018-11-02T11:27:58.707Z,21.33
2018-11-02T11:30:26.264Z,18.07
2018-11-02T11:32:54.356Z,16.97
2018-11-02T11:35:21.993Z,15.60
2018-11-02T11:37:49.607Z,19.23
2018-11-02T11:40:19.336Z,16.20
2018-11-02T11:42:46.971Z,12.77
2018-11-02T11:45:16.305Z,15.53
2018-11-02T11:47:44.192Z,14.13
2018-11-02T11:50:16.704Z,18.03
2018-11-02T11:52:47.233Z,18.57
2018-11-02T11:55:15.919Z,12.63
2018-11-02T11:57:43.632Z,15.17
2018-11-02T12:00:13.801Z,14.47
2018-11-02T12:02:41.620Z,14.43
2018-11-02T12:05:11.356Z,15.13
2018-11-02T12:07:41.024Z,18.07
2018-11-02T12:10:12.988Z,16.70
2018-11-02T12:12:40.575Z,21.90
2018-11-02T12:15:10.610Z,23.20
2018-11-02T12:17:39.968Z,16.80
2018-11-02T12:20:10.352Z,17.90
2018-11-02T12:22:38.992Z,22.47
2018-11-02T12:25:08.848Z,17.63
2018-11-02T12:27:36.928Z,20.50
2018-11-02T12:30:05.009Z,15.43
2018-11-02T12:32:32.730Z,16.80
2018-11-02T12:35:00.355Z,16.10
2018-11-02T12:37:28.219Z,14.97
2018-11-02T12:39:55.884Z,18.80
2018-11-02T12:42:24.224Z,17.20
2018-11-02T12:44:51.835Z,19.07
2018-11-02T12:47:19.396Z,16.20
2018-11-02T12:49:48.538Z,18.17
2018-11-02T12:52:16.829Z,15.50
2018-11-02T12:54:44.959Z,16.73
2018-11-02T12:57:13.180Z,19.67
2018-11-02T12:59:41.393Z,14.60
2018-11-02T13:02:09.578Z,15.90
2018-11-02T13:04:37.305Z,18.93
2018-11-02T13:07:05.905Z,15.90
2018-11-02T13:09:33.514Z,17.30
2018-11-02T13:12:01.047Z,14.40
2018-11-02T13:14:28.614Z,15.63
2018-11-02T13:16:56.678Z,11.93
2018-11-02T13:19:25.051Z,14.93
2018-11-02T13:21:53.383Z,15.73
2018-11-02T13:24:21.716Z,15.00
2018-11-02T13:26:49.845Z,9.03
2018-11-02T13:29:18.240Z,9.80
2018-11-02T13:31:45.894Z,12.03
2018-11-02T13:34:13.428Z,11.23
2018-11-02T13:36:41.870Z,12.17
2018-11-02T13:39:11.249Z,14.23
2018-11-02T13:41:38.972Z,16.00
2018-11-02T13:44:07.952Z,11.90
2018-11-02T13:46:36.171Z,10.07
2018-11-02T13:49:05.945Z,9.43
2018-11-02T13:51:33.940Z,13.50
2018-11-02T13:54:02.089Z,14.43
2018-11-02T13:56:29.646Z,14.40
2018-11-02T13:58:57.337Z,12.63
2018-11-02T14:01:26.089Z,17.00
2018-11-02T14:03:54.460Z,14.80
2018-11-02T14:06:22.016Z,15.80
2018-11-02T14:08:51.176Z,17.23
2018-11-02T14:11:19.042Z,17.40
2018-11-02T14:13:47.124Z,17.63
2018-11-02T14:16:15.417Z,16.07
2018-11-02T14:18:43.071Z,15.27
2018-11-02T14:21:11.974Z,16.97
2018-11-02T14:23:39.548Z,13.80
2018-11-02T14:26:09.427Z,15.23
2018-11-02T14:28:37.376Z,16.70
2018-11-02T14:31:05.563Z,18.00
2018-11-02T14:33:33.268Z,22.13
2018-11-02T14:36:00.891Z,18.83
2018-11-02T14:38:28.844Z,17.80
2018-11-02T14:40:56.534Z,18.53
2018-11-02T14:43:24.107Z,21.80
2018-11-02T14:45:51.744Z,16.70
2018-11-02T14:48:19.989Z,24.33
2018-11-02T14:50:47.569Z,19.77
2018-11-02T14:53:15.785Z,18.33
2018-11-02T14:55:44.052Z,17.00
2018-11-02T14:58:12.137Z,19.17
2018-11-02T15:00:39.680Z,20.83
2018-11-02T15:03:07.897Z,22.73
2018-11-02T15:05:36.128Z,21.07
2018-11-02T15:08:04.698Z,21.90
2018-11-02T15:10:32.345Z,21.17
2018-11-02T15:12:59.925Z,23.40
2018-11-02T15:15:28.044Z,21.93
2018-11-02T15:17:56.075Z,22.03
2018-11-02T15:20:24.170Z,21.57
2018-11-02T15:22:51.708Z,23.53
2018-11-02T15:25:20.012Z,23.27
2018-11-02T15:27:47.536Z,21.10
2018-11-02T15:30:16.124Z,20.30
2018-11-02T15:32:44.704Z,19.80
2018-11-02T15:35:12.556Z,21.40
2018-11-02T15:37:40.873Z,20.30
2018-11-02T15:40:09.745Z,23.43
2018-11-02T15:42:37.409Z,23.30
2018-11-02T15:45:07.198Z,22.23
2018-11-02T15:47:34.789Z,29.70
2018-11-02T15:50:02.828Z,24.07
2018-11-02T15:52:31.192Z,21.50
2018-11-02T15:54:59.475Z,23.90
2018-11-02T15:57:28.728Z,23.50
2018-11-02T15:59:57.427Z,117.10
2018-11-02T16:02:25.400Z,60.80
2018-11-02T16:04:54.044Z,47.00
2018-11-02T16:07:22.265Z,73.60
2018-11-02T16:09:49.868Z,25.47
2018-11-02T16:12:17.968Z,22.17
2018-11-02T16:14:46.332Z,32.20
2018-11-02T16:17:15.056Z,24.90
2018-11-02T16:19:42.689Z,25.50
2018-11-02T16:22:10.260Z,24.87
2018-11-02T16:24:38.337Z,32.40
2018-11-02T16:27:05.932Z,28.60
2018-11-02T16:29:33.467Z,26.57
2018-11-02T16:32:01.146Z,29.80
2018-11-02T16:34:29.342Z,38.00
2018-11-02T16:36:58.614Z,53.50
2018-11-02T16:39:26.371Z,27.63
2018-11-02T16:41:55.369Z,34.00
2018-11-02T16:44:23.122Z,34.73
2018-11-02T16:46:52.059Z,29.10
2018-11-02T16:49:20.604Z,30.53
2018-11-02T16:51:48.340Z,25.63
2018-11-02T16:54:17.147Z,55.63
2018-11-02T16:56:46.251Z,63.17
2018-11-02T16:59:14.361Z,99.33
2018-11-02T17:01:42.066Z,30.50
2018-11-02T17:04:09.670Z,23.23
2018-11-02T17:06:38.741Z,26.73
2018-11-02T17:09:10.289Z,27.37
2018-11-02T17:11:38.597Z,21.97
2018-11-02T17:14:06.501Z,22.13
2018-11-02T17:16:35.559Z,47.33
2018-11-02T17:19:03.185Z,37.70
2018-11-02T17:21:31.230Z,24.03
2018-11-02T17:24:03.409Z,24.90
2018-11-02T17:26:31.036Z,27.87
2018-11-02T17:28:58.636Z,26.80
2018-11-02T17:31:26.237Z,26.87
2018-11-02T17:33:54.176Z,28.23
2018-11-02T17:36:21.806Z,25.27
2018-11-02T17:38:51.063Z,25.47
2018-11-02T17:41:19.862Z,20.77
2018-11-02T17:43:47.466Z,17.97
2018-11-02T17:46:16.828Z,14.80
2018-11-02T17:48:44.742Z,14.00
2018-11-02T17:51:12.496Z,15.80
2018-11-02T17:53:40.964Z,19.17
2018-11-02T17:56:08.907Z,13.37
2018-11-02T17:58:36.550Z,18.43
2018-11-02T18:01:04.105Z,16.60
2018-11-02T18:03:31.732Z,25.17
2018-11-02T18:05:59.392Z,26.77
2018-11-02T18:08:28.677Z,29.47
2018-11-02T18:10:57.413Z,26.97
2018-11-02T18:13:25.473Z,27.13
2018-11-02T18:15:53.033Z,27.17
2018-11-02T18:18:21.206Z,35.53
2018-11-02T18:20:49.436Z,29.73
2018-11-02T18:23:17.136Z,33.50
2018-11-02T18:25:45.524Z,30.33
2018-11-02T18:29:16.697Z,25.90
2018-11-02T18:31:45.237Z,30.90
2018-11-02T18:34:13.276Z,34.53
2018-11-02T18:36:41.324Z,29.27
2018-11-02T18:39:13.084Z,32.23
2018-11-02T18:41:41.385Z,29.27
2018-11-02T18:44:10.036Z,29.93
2018-11-02T18:46:37.841Z,30.23
2018-11-02T18:49:06.097Z,33.83
2018-11-02T18:51:34.974Z,34.83
2018-11-02T18:54:04.521Z,32.27
2018-11-02T18:56:32.124Z,34.10
2018-11-02T18:58:59.677Z,37.87
2018-11-02T19:01:27.683Z,28.47
2018-11-02T19:03:55.259Z,35.57
2018-11-02T19:06:23.420Z,29.80
2018-11-02T19:08:51.536Z,37.00
2018-11-02T19:11:20.388Z,33.23
2018-11-02T19:13:47.958Z,32.73
2018-11-02T19:16:16.960Z,39.33
2018-11-02T19:18:44.512Z,31.63
2018-11-02T19:21:12.926Z,31.77
2018-11-02T19:23:40.556Z,33.03
2018-11-02T19:26:08.836Z,30.00
2018-11-02T19:28:36.431Z,25.30
2018-11-02T19:31:04.937Z,24.83
2018-11-02T19:33:33.216Z,29.60
2018-11-02T19:36:01.788Z,31.87
2018-11-02T19:38:30.092Z,35.40
2018-11-02T19:40:58.620Z,32.53
2018-11-02T19:43:26.176Z,28.97
2018-11-02T19:45:53.816Z,33.63
2018-11-02T19:48:21.814Z,26.70
2018-11-02T19:50:50.167Z,28.00
2018-11-02T19:53:18.148Z,35.50
2018-11-02T19:55:48.859Z,36.43
2018-11-02T19:58:17.073Z,31.97
2018-11-02T20:00:44.942Z,26.90
2018-11-02T20:03:13.287Z,33.00
2018-11-02T20:05:41.868Z,24.10
2018-11-02T20:08:10.124Z,23.00
2018-11-02T20:10:38.300Z,33.50
2018-11-02T20:13:06.952Z,32.40
2018-11-02T20:15:34.537Z,42.13
2018-11-02T20:18:02.953Z,46.07
2018-11-02T20:20:30.546Z,33.67
2018-11-02T20:22:58.105Z,31.17
2018-11-02T20:25:26.560Z,37.30
2018-11-02T20:27:55.265Z,31.17
2018-11-02T20:30:22.893Z,32.90
2018-11-02T20:32:51.149Z,36.23
2018-11-02T20:35:18.697Z,33.67
2018-11-02T20:37:47.466Z,35.93
2018-11-02T20:40:18.107Z,34.67
2018-11-02T20:42:46.134Z,31.93
2018-11-02T20:45:14.408Z,25.67
2018-11-02T20:47:46.762Z,24.10
2018-11-02T20:50:15.491Z,22.03
2018-11-02T20:52:43.596Z,25.50
2018-11-02T20:55:12.716Z,33.20
2018-11-02T20:57:41.452Z,38.40
2018-11-02T21:00:13.616Z,34.90
2018-11-02T21:02:44.363Z,26.90
2018-11-02T21:05:13.598Z,23.37
2018-11-02T21:07:42.861Z,34.43
2018-11-02T21:10:12.028Z,33.60
2018-11-02T21:12:40.174Z,34.77
2018-11-02T21:15:10.772Z,29.07
2018-11-02T21:17:40.680Z,27.37
2018-11-02T21:20:11.796Z,24.03
2018-11-02T21:22:40.201Z,29.60
2018-11-02T21:25:09.196Z,28.00
2018-11-02T21:27:37.482Z,24.53
2018-11-02T21:30:10.995Z,26.33
2018-11-02T21:32:38.569Z,32.93
2018-11-02T21:35:06.616Z,27.20
2018-11-02T21:37:35.180Z,31.00
2018-11-02T21:40:03.355Z,30.43
2018-11-02T21:42:31.060Z,24.40
2018-11-02T21:44:59.632Z,26.63
2018-11-02T21:47:27.252Z,25.47
2018-11-02T21:49:55.412Z,31.10
2018-11-02T21:52:23.773Z,37.77
2018-11-02T21:54:52.254Z,33.53
2018-11-02T21:57:20.410Z,32.13
2018-11-02T21:59:48.539Z,33.13
2018-11-02T22:02:17.299Z,27.43
2018-11-02T22:04:44.906Z,27.93
2018-11-02T22:07:13.048Z,63.60
2018-11-02T22:09:42.233Z,44.63
2018-11-02T22:12:10.009Z,28.13
2018-11-02T22:14:38.423Z,34.00
2018-11-02T22:17:06.793Z,32.10
2018-11-02T22:19:34.364Z,24.33
2018-11-02T22:22:01.939Z,21.40
2018-11-02T22:24:30.448Z,32.43
2018-11-02T22:26:58.036Z,22.97
2018-11-02T22:29:25.627Z,22.53
2018-11-02T22:31:53.268Z,29.83
2018-11-02T22:34:20.789Z,33.80
2018-11-02T22:36:48.780Z,34.63
2018-11-02T22:39:17.045Z,28.50
2018-11-02T22:41:45.636Z,30.33
2018-11-02T22:44:14.538Z,27.10
2018-11-02T22:46:42.132Z,26.33
2018-11-02T22:49:10.020Z,29.03
2018-11-02T22:51:37.623Z,25.93
2018-11-02T22:54:05.768Z,34.73
2018-11-02T22:56:34.187Z,36.00
2018-11-02T22:59:02.576Z,27.30
2018-11-02T23:01:32.208Z,32.20
2018-11-02T23:04:00.739Z,32.97
2018-11-02T23:06:30.204Z,42.40
2018-11-02T23:08:57.739Z,32.67
2018-11-02T23:11:26.000Z,30.70
2018-11-02T23:13:53.884Z,21.50
2018-11-02T23:16:22.400Z,28.77
2018-11-02T23:18:50.320Z,24.27
2018-11-02T23:21:18.804Z,24.10
2018-11-02T23:23:46.537Z,36.80
2018-11-02T23:26:15.309Z,36.60
2018-11-02T23:28:43.298Z,37.60
2018-11-02T23:31:10.840Z,31.13
2018-11-02T23:33:38.520Z,23.73
2018-11-02T23:36:06.104Z,25.20
2018-11-02T23:38:34.793Z,29.70
2018-11-02T23:41:03.872Z,34.13
2018-11-02T23:43:32.572Z,25.40
2018-11-02T23:46:00.131Z,25.73
2018-11-02T23:48:28.429Z,21.43
2018-11-02T23:50:56.646Z,21.43
2018-11-02T23:53:24.715Z,23.60
2018-11-02T23:55:54.243Z,26.27
2018-11-02T23:58:22.005Z,28.90
